메인 페이지
METAR-TAF:

METAR-TAF

공항 :

Cobb County Airport (McCollum Field)

애틀란타 / Kennesaw, 조지아, 미국

위도: 34-00-47N, 경도: 084-35-55W, 고도: 317m

현재 날씨관측

예보는 58분 전, 06:50시(UTC)에 발표되었습니다.
무풍
온도 22°C
습도 73%
기압 1017 hPa
시정: 16.1km
고도 9000ft 상공 구름 많음

METAR: KRYY 200650Z AUTO 00000KT 10SM BKN090 22/17 A3003 RMK AO2 SLP888 T02170172

시각: 03:48 (07:48 UTC)

예보

예보는 2 시간 11분 전, 05:37시(UTC)에 발표되었습니다.
예보 대상 시간: 20일 06시부터 21일 06시까지 (UTC)
kt
시정: 10km
고도 10000ft 상공 구름 보통
고도 20000ft 상공 구름 많음
20일 1400시부터 (UTC)
4kt
시정: 10km
고도 3500ft 상공 구름 보통
고도 12000ft 상공 구름 보통
20일 1700시부터 (UTC)
7kt
시정: 10km
고도 4500ft 상공 구름 많음
20일 2300시부터 (UTC)
서북서5kt
시정: 10km
고도 7000ft 상공 구름 보통
21일 0100시부터 (UTC)
여러 방향의 바람 3kt
시정: 10km
맑음

TAF: KRYY 200537Z 2006/2106 00000KT P6SM SCT100 BKN200 FM201400 28004KT P6SM SCT035 SCT120 FM201700 28007KT P6SM BKN045 FM202300 29005KT P6SM SCT070 FM210100 VRB03KT P6SM SKC

4,000개 이상의 공항 관측 자료 및 예보 (METAR 및 TAF 보고).

지도상에서 검색 가능한 기상관측소가 노란 점과 빨간 점으로 표시되어 있습니다.

기상관측소 명을 보려면 표시 위로 마우스를 이동하세요.

날씨 관측과 예보를 보려면 클릭하세요.

지도 변경 : 확대하려면 엑스 표시가 있는 녹색 버튼, 축소하려면 빼기 표시가 있는 녹색 버튼, 다음 페이지의 지도를 보려면 녹색 화살표를 클릭하세요.


METAR-TAF: